Time;durP1;ratioP1;P1;durP2;ratioP2;P2;SDS_P1;SDS_P2;PMS_P1;PMS_P2;Temp;Humidity;BMP_temperature;BMP_pressure;BME280_temperature;BME280_humidity;BME280_pressure;Samples;Min_cycle;Max_cycle;Signal;HPM_P1;HPM_P2
2023/09/28 00:02:22;;;;;;;;;;;;;;;13.63;100.00;96650.16;5088518;28;20129;-77
2023/09/28 00:04:48;;;;;;;;;;;;;;;13.63;100.00;96638.78;5107033;28;19939;-78
2023/09/28 00:07:14;;;;;;;;;;;;;;;13.60;100.00;96648.75;5107045;28;20108;-78
2023/09/28 00:09:40;;;;;;;;;;;;;;;13.60;100.00;96658.50;5105612;28;20003;-78
2023/09/28 00:12:06;;;;;;;;;;;;;;;13.59;100.00;96656.91;5106945;28;19978;-77
2023/09/28 00:14:32;;;;;;;;;;;;;;;13.56;100.00;96660.78;5106336;28;19937;-80
2023/09/28 00:16:57;;;;;;;;;;;;;;;13.56;100.00;96660.00;5106147;28;20016;-70
2023/09/28 00:19:24;;;;;;;;;;;;;;;13.54;100.00;96668.16;5106829;28;19936;-76
2023/09/28 00:21:50;;;;;;;;;;;;;;;13.51;100.00;96663.34;5104977;28;19954;-76
2023/09/28 00:24:16;;;;;;;;;;;;;;;13.49;100.00;96668.03;5104910;28;19943;-76
2023/09/28 00:26:42;;;;;;;;;;;;;;;13.48;100.00;96666.44;5088103;28;19946;-75
2023/09/28 00:29:08;;;;;;;;;;;;;;;13.48;100.00;96666.44;5088088;28;19990;-77
2023/09/28 00:31:34;;;;;;;;;;;;;;;13.47;100.00;96666.66;5104905;28;19938;-75
2023/09/28 00:34:00;;;;;;;;;;;;;;;13.45;100.00;96652.91;5106397;28;19939;-76
2023/09/28 00:36:26;;;;;;;;;;;;;;;13.43;100.00;96650.50;5104860;28;20226;-75
2023/09/28 00:38:51;;;;;;;;;;;;;;;13.44;100.00;96653.94;5104824;28;19930;-72
2023/09/28 00:41:18;;;;;;;;;;;;;;;13.43;100.00;96658.41;5088456;28;19970;-71
2023/09/28 00:43:44;;;;;;;;;;;;;;;13.41;100.00;96655.22;5104539;28;19946;-71
2023/09/28 00:46:13;;;;;;;;;;;;;;;13.40;100.00;96659.69;5105638;28;20135;-72
2023/09/28 00:48:46;;;;;;;;;;;;;;;13.40;100.00;96656.25;5104498;28;19943;-72
2023/09/28 00:51:12;;;;;;;;;;;;;;;13.40;100.00;96659.69;5105406;28;20110;-71
2023/09/28 00:53:38;;;;;;;;;;;;;;;13.39;100.00;96652.78;5105542;28;19934;-70
2023/09/28 00:56:07;;;;;;;;;;;;;;;13.40;100.00;96650.97;5105360;28;20256;-77
2023/09/28 00:58:37;;;;;;;;;;;;;;;13.38;100.00;96648.56;5105436;28;19937;-76
2023/09/28 01:01:06;;;;;;;;;;;;;;;13.38;100.00;96647.78;5087270;28;20162;-77
2023/09/28 01:03:32;;;;;;;;;;;;;;;13.38;100.00;96659.09;5104221;28;19936;-76
2023/09/28 01:05:58;;;;;;;;;;;;;;;13.36;100.00;96655.09;5105274;28;19988;-76
2023/09/28 01:08:24;;;;;;;;;;;;;;;13.36;100.00;96658.53;5087232;28;19948;-76
2023/09/28 01:10:50;;;;;;;;;;;;;;;13.35;100.00;96650.84;5087163;28;19938;-77
2023/09/28 01:13:20;;;;;;;;;;;;;;;13.34;100.00;96654.53;5104806;28;19941;-70
2023/09/28 01:15:47;;;;;;;;;;;;;;;13.33;100.00;96663.47;5104293;28;19976;-70
2023/09/28 01:18:16;;;;;;;;;;;;;;;13.31;100.00;96655.81;5105078;28;19956;-70
2023/09/28 01:20:43;;;;;;;;;;;;;;;13.30;100.00;96659.44;5103780;28;19952;-71
2023/09/28 01:23:09;;;;;;;;;;;;;;;13.29;100.00;96662.31;5105032;28;19943;-71
2023/09/28 01:25:36;;;;;;;;;;;;;;;13.27;100.00;96664.34;5104937;28;20246;-70
2023/09/28 01:28:03;;;;;;;;;;;;;;;13.27;100.00;96659.91;5105169;28;19934;-70
2023/09/28 01:30:30;;;;;;;;;;;;;;;13.27;100.00;96653.81;5105426;28;19943;-73
2023/09/28 01:32:56;;;;;;;;;;;;;;;13.26;100.00;96655.66;5087647;28;19936;-75
2023/09/28 01:35:22;;;;;;;;;;;;;;;13.26;100.00;96663.53;5103644;28;19955;-76
2023/09/28 01:37:58;;;;;;;;;;;;;;;13.26;100.00;96660.91;5087553;28;19939;-76
2023/09/28 01:40:23;;;;;;;;;;;;;;;13.26;100.00;96660.91;5103902;28;19942;-76
2023/09/28 01:42:49;;;;;;;;;;;;;;;13.27;100.00;96661.72;5104607;28;20010;-76
2023/09/28 01:45:15;;;;;;;;;;;;;;;13.25;100.00;96663.75;5104724;28;19934;-77
2023/09/28 01:47:41;;;;;;;;;;;;;;;13.23;100.00;96656.13;5086668;28;19946;-79
2023/09/28 01:50:07;;;;;;;;;;;;;;;13.22;100.00;96654.50;5086628;28;20131;-70
2023/09/28 01:52:33;;;;;;;;;;;;;;;13.18;100.00;96662.03;5103475;28;19935;-72
2023/09/28 01:54:59;;;;;;;;;;;;;;;13.18;100.00;96661.25;5103356;28;20135;-72
2023/09/28 01:57:25;;;;;;;;;;;;;;;13.18;100.00;96658.63;5105280;28;20094;-72
2023/09/28 01:59:51;;;;;;;;;;;;;;;13.16;100.00;96663.31;5103278;28;19941;-71
2023/09/28 02:02:17;;;;;;;;;;;;;;;13.16;100.00;96658.84;5104372;28;19993;-71
2023/09/28 02:04:43;;;;;;;;;;;;;;;13.15;100.00;96662.50;5087247;28;20010;-71
2023/09/28 02:07:09;;;;;;;;;;;;;;;13.15;100.00;96654.63;5105155;28;19935;-75
2023/09/28 02:09:35;;;;;;;;;;;;;;;13.13;100.00;96651.41;5104887;28;19935;-76
2023/09/28 02:12:01;;;;;;;;;;;;;;;13.15;100.00;96662.50;5104330;28;19975;-76
2023/09/28 02:14:27;;;;;;;;;;;;;;;13.18;100.00;96659.41;5103947;28;19940;-76
2023/09/28 02:16:53;;;;;;;;;;;;;;;13.19;100.00;96661.03;5104100;28;19961;-76
2023/09/28 02:19:19;;;;;;;;;;;;;;;13.19;100.00;96653.13;5087147;28;19950;-76
2023/09/28 02:21:47;;;;;;;;;;;;;;;13.20;100.00;96662.63;5104709;28;20258;-76
2023/09/28 02:24:13;;;;;;;;;;;;;;;13.20;100.00;96662.63;5103120;28;19941;-76
2023/09/28 02:26:39;;;;;;;;;;;;;;;13.20;100.00;96656.56;5104202;28;20271;-71
2023/09/28 02:29:04;;;;;;;;;;;;;;;13.21;100.00;96655.53;5103873;28;20095;-78
2023/09/28 02:31:31;;;;;;;;;;;;;;;13.22;100.00;96662.41;5104620;28;20000;-79
2023/09/28 02:33:57;;;;;;;;;;;;;;;13.24;100.00;96659.53;5086103;28;19930;-79
2023/09/28 02:36:23;;;;;;;;;;;;;;;13.24;100.00;96665.59;5104116;28;20095;-78
2023/09/28 02:38:49;;;;;;;;;;;;;;;13.24;100.00;96670.88;5104098;28;19971;-79
2023/09/28 02:41:16;;;;;;;;;;;;;;;13.23;100.00;96661.38;5103926;28;20149;-79
2023/09/28 02:43:42;;;;;;;;;;;;;;;13.23;100.00;96660.56;5103405;28;19936;-72
2023/09/28 02:46:08;;;;;;;;;;;;;;;13.22;100.00;96658.97;5103735;28;19947;-71
2023/09/28 02:48:34;;;;;;;;;;;;;;;13.21;100.00;96673.97;5103504;28;19962;-75
2023/09/28 02:51:02;;;;;;;;;;;;;;;13.19;100.00;96673.41;5086020;28;19966;-74
2023/09/28 02:53:29;;;;;;;;;;;;;;;13.18;100.00;96672.56;5102984;28;19934;-75
2023/09/28 02:55:56;;;;;;;;;;;;;;;13.15;100.00;96667.00;5102836;28;19933;-74
2023/09/28 02:58:22;;;;;;;;;;;;;;;13.14;100.00;96670.63;5103150;28;19935;-74
2023/09/28 03:00:48;;;;;;;;;;;;;;;13.14;100.00;96673.28;5103822;28;19932;-74
2023/09/28 03:03:14;;;;;;;;;;;;;;;13.14;100.00;96662.75;5103922;28;19954;-73
2023/09/28 03:05:40;;;;;;;;;;;;;;;13.13;100.00;96658.50;5103566;28;20204;-74
2023/09/28 03:08:11;;;;;;;;;;;;;;;13.13;100.00;96663.78;5102730;28;19989;-74
2023/09/28 03:10:41;;;;;;;;;;;;;;;13.12;100.00;96694.59;5086631;28;19939;-74
2023/09/28 03:13:08;;;;;;;;;;;;;;;13.11;100.00;96679.00;5103064;28;20102;-74
2023/09/28 03:15:34;;;;;;;;;;;;;;;13.10;100.00;96674.75;5085588;28;19971;-74
2023/09/28 03:18:00;;;;;;;;;;;;;;;13.10;100.00;96659.78;5086759;28;19944;-74
2023/09/28 03:20:26;;;;;;;;;;;;;;;13.10;100.00;96677.38;5090157;28;19935;-74
2023/09/28 03:22:52;;;;;;;;;;;;;;;13.11;100.00;96671.91;5106929;28;19955;-70
2023/09/28 03:25:18;;;;;;;;;;;;;;;13.13;100.00;96669.03;5106771;28;19932;-73
2023/09/28 03:27:45;;;;;;;;;;;;;;;13.13;100.00;96672.47;5090014;28;19944;-73
2023/09/28 03:30:11;;;;;;;;;;;;;;;13.16;100.00;96673.84;5107231;28;19937;-74
2023/09/28 03:32:38;;;;;;;;;;;;;;;13.17;100.00;96667.56;5106667;28;20199;-72
2023/09/28 03:35:05;;;;;;;;;;;;;;;13.17;100.00;96657.03;5107357;28;19953;-73
2023/09/28 03:37:31;;;;;;;;;;;;;;;13.17;100.00;96659.66;5105899;28;19931;-73
2023/09/28 03:39:58;;;;;;;;;;;;;;;13.16;100.00;96664.09;5105976;28;19933;-74
2023/09/28 03:42:24;;;;;;;;;;;;;;;13.18;100.00;96666.53;5106922;28;19950;-73
2023/09/28 03:44:50;;;;;;;;;;;;;;;13.17;100.00;96664.94;5106060;28;19944;-73
2023/09/28 03:47:15;;;;;;;;;;;;;;;13.17;100.00;96676.25;5106929;28;19998;-73
2023/09/28 03:49:41;;;;;;;;;;;;;;;13.18;100.00;96677.06;5106517;28;19972;-73
2023/09/28 03:52:08;;;;;;;;;;;;;;;13.17;100.00;96684.16;5106032;28;19988;-73
2023/09/28 03:54:34;;;;;;;;;;;;;;;13.17;100.00;96689.41;5106383;28;19946;-73
2023/09/28 03:57:00;;;;;;;;;;;;;;;13.16;100.00;96690.44;5088683;28;19931;-70
2023/09/28 03:59:25;;;;;;;;;;;;;;;13.14;100.00;96691.69;5105591;28;19934;-70
2023/09/28 04:01:51;;;;;;;;;;;;;;;13.11;100.00;96687.69;5107094;28;19953;-70
2023/09/28 04:04:18;;;;;;;;;;;;;;;13.10;100.00;96688.75;5106816;28;19941;-69
2023/09/28 04:06:44;;;;;;;;;;;;;;;13.09;100.00;96691.59;5105352;28;19948;-70
2023/09/28 04:09:11;;;;;;;;;;;;;;;13.08;100.00;96701.34;5107079;28;19938;-71
2023/09/28 04:11:37;;;;;;;;;;;;;;;13.06;100.00;96703.41;5105716;28;20145;-70
2023/09/28 04:14:03;;;;;;;;;;;;;;;13.08;100.00;96700.50;5106881;28;19931;-70
2023/09/28 04:16:29;;;;;;;;;;;;;;;13.07;100.00;96707.63;5106274;28;19989;-71
2023/09/28 04:18:54;;;;;;;;;;;;;;;13.07;100.00;96702.34;5105173;28;20229;-79
2023/09/28 04:21:20;;;;;;;;;;;;;;;13.08;100.00;96703.16;5105033;28;20235;-78
2023/09/28 04:23:46;;;;;;;;;;;;;;;13.07;100.00;96702.34;5106728;28;19933;-78
2023/09/28 04:26:12;;;;;;;;;;;;;;;13.06;100.00;96708.66;5106901;28;19935;-78
2023/09/28 04:28:40;;;;;;;;;;;;;;;13.07;100.00;96706.81;5105888;28;19936;-77
2023/09/28 04:31:05;;;;;;;;;;;;;;;13.05;100.00;96707.03;5105216;28;20201;-77
2023/09/28 04:33:31;;;;;;;;;;;;;;;13.07;100.00;96698.91;5106002;28;19937;-76
2023/09/28 04:35:57;;;;;;;;;;;;;;;13.06;100.00;96698.13;5105594;28;20002;-74
2023/09/28 04:38:23;;;;;;;;;;;;;;;13.06;100.00;96694.66;5087911;28;20066;-74
2023/09/28 04:40:50;;;;;;;;;;;;;;;13.13;100.00;96698.00;5104672;28;19941;-74
2023/09/28 04:43:16;;;;;;;;;;;;;;;13.26;100.00;96694.34;5105999;28;19957;-74
2023/09/28 04:45:42;;;;;;;;;;;;;;;13.32;100.00;96699.53;5105741;28;19931;-76
2023/09/28 04:48:08;;;;;;;;;;;;;;;13.35;100.00;96695.63;5105722;28;20223;-75
2023/09/28 04:50:34;;;;;;;;;;;;;;;13.34;100.00;96700.09;5104413;28;19955;-75
2023/09/28 04:53:00;;;;;;;;;;;;;;;13.34;100.00;96694.84;5106042;28;19935;-70
2023/09/28 04:55:26;;;;;;;;;;;;;;;13.33;100.00;96700.34;5104446;28;19945;-77
2023/09/28 04:57:53;;;;;;;;;;;;;;;13.32;100.00;96706.66;5105489;28;19936;-78
2023/09/28 05:00:20;;;;;;;;;;;;;;;13.27;100.00;96688.03;5105425;28;20226;-76
2023/09/28 05:02:45;;;;;;;;;;;;;;;13.25;100.00;96692.75;5106102;28;19957;-77
2023/09/28 05:05:12;;;;;;;;;;;;;;;13.24;100.00;96704.31;5105397;28;20222;-78
2023/09/28 05:07:38;;;;;;;;;;;;;;;13.23;100.00;96705.34;5105310;28;19931;-79
2023/09/28 05:10:05;;;;;;;;;;;;;;;13.22;100.00;96709.81;5105276;28;20092;-76
2023/09/28 05:12:31;;;;;;;;;;;;;;;13.20;100.00;96714.50;5105238;28;19945;-75
2023/09/28 05:14:57;;;;;;;;;;;;;;;13.18;100.00;96712.09;5104458;28;19968;-76
2023/09/28 05:17:23;;;;;;;;;;;;;;;13.18;100.00;96711.28;5104977;28;20177;-76
2023/09/28 05:19:49;;;;;;;;;;;;;;;13.19;100.00;96718.97;5105107;28;19936;-75
2023/09/28 05:22:15;;;;;;;;;;;;;;;13.17;100.00;96715.75;5104867;28;19951;-75
2023/09/28 05:24:41;;;;;;;;;;;;;;;13.17;100.00;96720.22;5105086;28;19944;-75
2023/09/28 05:27:07;;;;;;;;;;;;;;;13.16;100.00;96729.94;5105798;28;19934;-75
2023/09/28 05:29:33;;;;;;;;;;;;;;;13.17;100.00;96728.94;5104467;28;19993;-71
2023/09/28 05:31:59;;;;;;;;;;;;;;;13.16;100.00;96732.56;5104915;28;19965;-74
2023/09/28 05:34:25;;;;;;;;;;;;;;;13.15;100.00;96741.50;5103777;28;20123;-75
2023/09/28 05:36:50;;;;;;;;;;;;;;;13.14;100.00;96742.53;5104436;28;20019;-75
2023/09/28 05:39:18;;;;;;;;;;;;;;;13.14;100.00;96749.63;5105676;28;19951;-75
2023/09/28 05:41:44;;;;;;;;;;;;;;;13.13;100.00;96754.09;5086396;28;20116;-76
2023/09/28 05:44:10;;;;;;;;;;;;;;;13.14;100.00;96758.31;5086674;28;20008;-75
2023/09/28 05:46:36;;;;;;;;;;;;;;;13.13;100.00;96764.63;5103595;28;19938;-75
2023/09/28 05:49:02;;;;;;;;;;;;;;;13.11;100.00;96765.91;5104432;28;20006;-73
2023/09/28 05:51:28;;;;;;;;;;;;;;;13.08;100.00;96761.91;5104650;28;19931;-71
2023/09/28 05:53:54;;;;;;;;;;;;;;;13.06;100.00;96763.94;5104249;28;19943;-72
2023/09/28 05:56:20;;;;;;;;;;;;;;;13.05;100.00;96767.59;5104182;28;19933;-71
2023/09/28 05:58:46;;;;;;;;;;;;;;;13.04;100.00;96773.06;5103513;28;20010;-71
2023/09/28 06:01:15;;;;;;;;;;;;;;;13.03;100.00;96772.28;5103295;28;19950;-72
2023/09/28 06:03:42;;;;;;;;;;;;;;;13.02;100.00;96773.31;5103866;28;19956;-71
2023/09/28 06:06:16;;;;;;;;;;;;;;;13.02;100.00;96780.41;5103338;28;19939;-72
2023/09/28 06:08:42;;;;;;;;;;;;;;;13.02;100.00;96768.06;5087126;28;19947;-78
2023/09/28 06:11:15;;;;;;;;;;;;;;;13.04;100.00;96770.44;5103080;28;19938;-76
2023/09/28 06:13:41;;;;;;;;;;;;;;;13.09;100.00;96773.22;5104332;28;19938;-76
2023/09/28 06:16:11;;;;;;;;;;;;;;;13.23;100.00;96773.81;5103053;28;20162;-76
2023/09/28 06:18:38;;;;;;;;;;;;;;;13.50;100.00;96761.88;5087013;28;20220;-76
2023/09/28 06:21:04;;;;;;;;;;;;;;;13.86;100.00;96751.28;5086269;28;20259;-76
2023/09/28 06:23:30;;;;;;;;;;;;;;;14.24;100.00;96750.78;5104698;28;19946;-77
2023/09/28 06:25:56;;;;;;;;;;;;;;;14.56;100.00;96743.25;5103195;28;20123;-76
2023/09/28 06:28:24;;;;;;;;;;;;;;;14.78;100.00;96735.47;5102956;28;19948;-73
2023/09/28 06:30:51;;;;;;;;;;;;;;;14.85;100.00;96719.47;5103071;28;20142;-73
2023/09/28 06:33:17;;;;;;;;;;;;;;;14.78;100.00;96737.28;5103060;28;19936;-73
2023/09/28 06:35:43;;;;;;;;;;;;;;;14.80;100.00;96738.69;5086245;28;19954;-72
2023/09/28 06:38:10;;;;;;;;;;;;;;;15.01;100.00;96739.84;5103732;28;19944;-72
2023/09/28 06:40:37;;;;;;;;;;;;;;;15.13;100.00;96739.75;5103254;28;19935;-73
2023/09/28 06:43:03;;;;;;;;;;;;;;;15.08;100.00;96738.88;5103653;28;19959;-75
2023/09/28 06:45:29;;;;;;;;;;;;;;;14.92;100.00;96733.31;5086895;28;19938;-74
2023/09/28 06:47:55;;;;;;;;;;;;;;;14.80;100.00;96736.03;5104271;28;19939;-74
2023/09/28 06:50:21;;;;;;;;;;;;;;;14.71;100.00;96745.38;5102929;28;19934;-73
2023/09/28 06:52:47;;;;;;;;;;;;;;;14.60;100.00;96754.13;5104232;28;19942;-73
2023/09/28 06:55:13;;;;;;;;;;;;;;;14.51;100.00;96751.06;5106705;28;19937;-76
2023/09/28 06:57:39;;;;;;;;;;;;;;;14.45;100.00;96759.91;5106813;28;20129;-74
2023/09/28 07:00:08;;;;;;;;;;;;;;;14.42;100.00;96765.63;5090532;28;20243;-74
2023/09/28 07:02:35;;;;;;;;;;;;;;;14.39;100.00;96771.41;5090409;28;19966;-75
2023/09/28 07:05:01;;;;;;;;;;;;;;;14.36;100.00;96779.75;5089696;28;19934;-74
2023/09/28 07:07:29;;;;;;;;;;;;;;;14.32;100.00;96776.81;5106503;28;19939;-74
2023/09/28 07:09:55;;;;;;;;;;;;;;;14.28;100.00;96778.31;5107294;28;19950;-75
2023/09/28 07:12:24;;;;;;;;;;;;;;;14.25;100.00;96788.50;5107148;28;19941;-73
2023/09/28 07:14:50;;;;;;;;;;;;;;;14.20;100.00;96790.00;5108082;28;19941;-74
2023/09/28 07:17:16;;;;;;;;;;;;;;;14.18;100.00;96792.06;5108171;28;20166;-74
2023/09/28 07:19:42;;;;;;;;;;;;;;;14.18;100.00;96791.28;5106178;28;19984;-71
2023/09/28 07:22:08;;;;;;;;;;;;;;;14.18;100.00;96799.19;5090052;28;19955;-72
2023/09/28 07:24:34;;;;;;;;;;;;;;;14.16;100.00;96796.78;5106143;28;19945;-73
2023/09/28 07:27:00;;;;;;;;;;;;;;;14.16;100.00;96811.81;5106815;28;19971;-72
2023/09/28 07:29:26;;;;;;;;;;;;;;;14.17;100.00;96822.13;5106199;28;19945;-72
2023/09/28 07:31:52;;;;;;;;;;;;;;;14.26;100.00;96813.84;5106148;28;19932;-73
2023/09/28 07:34:18;;;;;;;;;;;;;;;14.38;100.00;96809.34;5106742;28;19957;-73
2023/09/28 07:36:45;;;;;;;;;;;;;;;14.71;100.00;96806.09;5089859;28;19946;-73
2023/09/28 07:39:11;;;;;;;;;;;;;;;15.09;100.00;96785.38;5089223;28;19946;-77
2023/09/28 07:41:38;;;;;;;;;;;;;;;15.43;100.00;96781.72;5107168;28;19938;-75
2023/09/28 07:44:04;;;;;;;;;;;;;;;15.76;100.00;96768.75;5088891;28;19955;-75
2023/09/28 07:46:31;;;;;;;;;;;;;;;16.03;100.00;96760.91;5105844;28;20305;-76
2023/09/28 07:48:56;;;;;;;;;;;;;;;16.22;100.00;96756.94;5107687;28;19941;-75
2023/09/28 07:51:22;;;;;;;;;;;;;;;16.39;100.00;96756.84;5106458;28;19938;-76
2023/09/28 07:53:48;;;;;;;;;;;;;;;16.36;100.00;96744.13;5089525;28;20019;-75
2023/09/28 07:56:14;;;;;;;;;;;;;;;16.19;100.00;96751.31;5105699;28;19994;-75
2023/09/28 07:58:40;;;;;;;;;;;;;;;16.02;100.00;96754.84;5107248;28;19959;-71
2023/09/28 08:01:06;;;;;;;;;;;;;;;15.87;100.00;96783.69;5106922;28;19966;-72
2023/09/28 08:03:32;;;;;;;;;;;;;;;15.73;100.00;96787.75;5106318;28;20119;-72
2023/09/28 08:05:59;;;;;;;;;;;;;;;15.62;100.00;96792.84;5088491;28;19947;-72
2023/09/28 08:08:27;;;;;;;;;;;;;;;15.60;100.00;96794.94;5106111;28;20099;-72
2023/09/28 08:10:53;;;;;;;;;;;;;;;15.84;100.00;96794.78;5105417;28;19943;-72
2023/09/28 08:13:19;;;;;;;;;;;;;;;16.16;100.00;96773.78;5088418;28;20224;-73
2023/09/28 08:15:45;;;;;;;;;;;;;;;16.43;100.00;96763.25;5088251;28;19965;-76
2023/09/28 08:18:10;;;;;;;;;;;;;;;16.69;100.00;96738.91;5105297;28;19944;-71
2023/09/28 08:20:37;;;;;;;;;;;;;;;16.93;100.00;96756.13;5107137;28;19969;-71
2023/09/28 08:23:04;;;;;;;;;;;;;;;17.14;100.00;96743.06;5105015;28;20259;-71
2023/09/28 08:25:30;;;;;;;;;;;;;;;17.28;100.00;96738.94;5105080;28;19945;-71
2023/09/28 08:27:56;;;;;;;;;;;;;;;17.43;99.91;96719.72;5106146;28;19935;-71
2023/09/28 08:30:22;;;;;;;;;;;;;;;17.55;100.00;96732.78;5105061;28;19945;-71
2023/09/28 08:32:48;;;;;;;;;;;;;;;17.67;100.00;96759.13;5104817;28;19939;-71
2023/09/28 08:35:15;;;;;;;;;;;;;;;17.75;100.00;96743.50;5088031;28;19954;-76
2023/09/28 08:37:41;;;;;;;;;;;;;;;17.80;99.05;96729.47;5088699;28;19941;-75
2023/09/28 08:40:08;;;;;;;;;;;;;;;17.87;100.00;96750.50;5087887;28;19945;-75
2023/09/28 08:42:35;;;;;;;;;;;;;;;17.98;100.00;96742.34;5088729;28;19957;-76
2023/09/28 08:45:01;;;;;;;;;;;;;;;18.06;97.92;96719.84;5105045;28;19946;-76
2023/09/28 08:47:31;;;;;;;;;;;;;;;18.13;98.92;96728.34;5105791;28;19938;-76
2023/09/28 08:49:57;;;;;;;;;;;;;;;18.23;100.00;96746.19;5088420;28;19945;-76
2023/09/28 08:52:24;;;;;;;;;;;;;;;18.31;100.00;96744.88;5088413;28;19933;-73
2023/09/28 08:54:50;;;;;;;;;;;;;;;18.38;94.98;96721.53;5104440;28;19952;-76
2023/09/28 08:57:16;;;;;;;;;;;;;;;18.42;98.68;96738.56;5105013;28;19934;-77
2023/09/28 08:59:42;;;;;;;;;;;;;;;18.50;98.42;96734.56;5105466;28;19962;-76
2023/09/28 09:02:08;;;;;;;;;;;;;;;18.58;98.89;96742.03;5087351;28;19943;-76
2023/09/28 09:04:34;;;;;;;;;;;;;;;18.68;99.41;96747.38;5105103;28;19942;-76
2023/09/28 09:07:02;;;;;;;;;;;;;;;18.77;93.93;96713.13;5087343;28;20136;-76
2023/09/28 09:09:29;;;;;;;;;;;;;;;18.82;95.54;96721.16;5104236;28;19942;-77
2023/09/28 09:11:57;;;;;;;;;;;;;;;18.90;98.42;96741.06;5105040;28;19947;-71
2023/09/28 09:14:32;;;;;;;;;;;;;;;19.01;95.05;96719.56;5088316;28;19938;-71
2023/09/28 09:16:58;;;;;;;;;;;;;;;19.11;96.90;96731.25;5086507;28;19970;-73
2023/09/28 09:19:28;;;;;;;;;;;;;;;19.22;96.41;96733.66;5104009;28;19959;-72
2023/09/28 09:21:54;;;;;;;;;;;;;;;19.32;96.33;96726.72;5104555;28;19942;-72
2023/09/28 09:24:21;;;;;;;;;;;;;;;19.38;93.88;96712.38;5105275;28;19954;-73
2023/09/28 09:26:47;;;;;;;;;;;;;;;19.43;96.23;96725.69;5105025;28;20126;-72
2023/09/28 09:29:15;;;;;;;;;;;;;;;19.50;94.01;96710.22;5104787;28;19942;-80
2023/09/28 09:31:45;;;;;;;;;;;;;;;19.54;94.92;96724.59;5104465;28;19954;-73
2023/09/28 09:34:12;;;;;;;;;;;;;;;19.57;95.96;96723.25;5086801;28;20226;-73
2023/09/28 09:36:38;;;;;;;;;;;;;;;19.62;98.35;96747.19;5103789;28;19940;-73
2023/09/28 09:39:04;;;;;;;;;;;;;;;19.68;94.61;96720.31;5087612;28;20097;-73
2023/09/28 09:41:31;;;;;;;;;;;;;;;19.70;92.20;96706.78;5087530;28;19946;-73
2023/09/28 09:43:59;;;;;;;;;;;;;;;19.71;94.18;96712.88;5086714;28;19956;-73
2023/09/28 09:46:26;;;;;;;;;;;;;;;19.74;92.14;96712.34;5086770;28;19943;-72
2023/09/28 09:48:53;;;;;;;;;;;;;;;19.78;94.35;96713.38;5088044;28;19940;-75
2023/09/28 09:51:18;;;;;;;;;;;;;;;19.88;92.38;96708.03;5105215;28;19940;-72
2023/09/28 09:53:45;;;;;;;;;;;;;;;19.98;94.95;96725.84;5086603;28;19944;-72
2023/09/28 09:56:12;;;;;;;;;;;;;;;20.04;93.04;96720.25;5104194;28;19967;-72
2023/09/28 09:58:42;;;;;;;;;;;;;;;20.10;94.46;96729.03;5103348;28;19941;-72
2023/09/28 10:01:12;;;;;;;;;;;;;;;20.17;92.34;96708.22;5103692;28;19932;-71
2023/09/28 10:03:44;;;;;;;;;;;;;;;20.24;91.75;96708.72;5104345;28;19969;-71
2023/09/28 10:06:11;;;;;;;;;;;;;;;20.29;90.67;96707.91;5087451;28;19939;-79
2023/09/28 10:08:38;;;;;;;;;;;;;;;20.36;93.65;96723.59;5105224;28;19932;-80
2023/09/28 10:11:04;;;;;;;;;;;;;;;20.42;90.92;96698.50;5104415;28;19958;-78
2023/09/28 10:13:31;;;;;;;;;;;;;;;20.49;89.61;96688.34;5103957;28;19939;-80
2023/09/28 10:16:01;;;;;;;;;;;;;;;20.60;90.95;96699.75;5104067;28;19962;-80
2023/09/28 10:18:29;;;;;;;;;;;;;;;20.69;90.48;96700.78;5104529;28;19964;-79
2023/09/28 10:20:55;;;;;;;;;;;;;;;20.77;90.29;96697.53;5104244;28;20227;-79
2023/09/28 10:23:24;;;;;;;;;;;;;;;20.86;89.15;96682.53;5104169;28;19952;-72
2023/09/28 10:25:57;;;;;;;;;;;;;;;20.93;88.75;96687.53;5103127;28;19945;-76
2023/09/28 10:28:24;;;;;;;;;;;;;;;21.02;83.64;96651.22;5088875;28;19946;-75
2023/09/28 10:31:07;;;;;;;;;;;;;;;21.14;88.04;96688.19;5107249;28;19935;-74
2023/09/28 10:33:33;;;;;;;;;;;;;;;21.27;85.19;96668.88;5108009;28;19943;-74
2023/09/28 10:36:12;;;;;;;;;;;;;;;21.41;85.05;96657.53;5090990;28;19954;-74
2023/09/28 10:38:39;;;;;;;;;;;;;;;21.54;87.97;96680.13;5107857;28;19939;-74
2023/09/28 10:41:06;;;;;;;;;;;;;;;21.67;86.27;96682.94;5108765;28;20119;-74
2023/09/28 10:43:38;;;;;;;;;;;;;;;21.76;84.12;96696.44;5108922;28;19956;-77
2023/09/28 10:46:04;;;;;;;;;;;;;;;21.88;82.14;96698.69;5108941;28;19932;-75
2023/09/28 10:48:51;;;;;;;;;;;;;;;22.02;81.07;96698.81;5107918;28;19935;-74
2023/09/28 10:51:18;;;;;;;;;;;;;;;22.17;84.11;96714.66;5107522;28;19942;-74
2023/09/28 10:53:44;;;;;;;;;;;;;;;22.28;79.26;96702.03;5108434;28;19947;-74
2023/09/28 10:56:11;;;;;;;;;;;;;;;22.41;74.25;96695.16;5106765;28;20224;-74
2023/09/28 10:58:37;;;;;;;;;;;;;;;22.55;81.15;96730.75;5107875;28;19943;-74
2023/09/28 11:01:07;;;;;;;;;;;;;;;22.71;76.90;96715.31;5107423;28;20014;-72
2023/09/28 11:03:36;;;;;;;;;;;;;;;22.87;80.18;96726.59;5106632;28;19957;-71
2023/09/28 11:06:03;;;;;;;;;;;;;;;23.07;76.16;96704.13;5107334;28;19934;-70
2023/09/28 11:08:33;;;;;;;;;;;;;;;23.28;70.78;96704.59;5107699;28;19940;-71
2023/09/28 11:11:01;;;;;;;;;;;;;;;23.43;74.64;96716.91;5106721;28;20101;-70
2023/09/28 11:13:27;;;;;;;;;;;;;;;23.50;71.41;96723.47;5107584;28;19941;-71
2023/09/28 11:15:53;;;;;;;;;;;;;;;23.56;72.98;96732.22;5106195;28;19977;-70
2023/09/28 11:18:20;;;;;;;;;;;;;;;23.68;72.71;96727.16;5106393;28;19942;-74
2023/09/28 11:20:46;;;;;;;;;;;;;;;23.84;67.46;96705.50;5107541;28;19939;-72
2023/09/28 11:23:12;;;;;;;;;;;;;;;23.96;67.87;96719.22;5049257;28;20160;-72
2023/09/28 11:25:39;;;;;;;;;;;;;;;24.05;71.97;96730.81;5032680;28;19940;-72
2023/09/28 11:28:06;;;;;;;;;;;;;;;24.19;71.97;96720.09;5048842;28;19940;-72
2023/09/28 11:30:32;;;;;;;;;;;;;;;24.34;69.86;96710.94;5049389;28;19942;-72
2023/09/28 11:32:58;;;;;;;;;;;;;;;24.52;75.11;96728.78;5031784;28;20118;-72
2023/09/28 11:35:24;;;;;;;;;;;;;;;24.69;72.36;96720.16;5048679;28;19956;-72
2023/09/28 11:37:51;;;;;;;;;;;;;;;24.85;72.71;96720.56;5048343;28;20138;-71
2023/09/28 11:40:19;;;;;;;;;;;;;;;24.94;66.91;96719.84;5048679;28;20111;-76
2023/09/28 11:42:47;;;;;;;;;;;;;;;25.04;66.85;96727.66;5065478;28;19945;-75
2023/09/28 11:45:13;;;;;;;;;;;;;;;25.16;66.69;96725.22;5064877;28;19947;-76
2023/09/28 11:47:38;;;;;;;;;;;;;;;25.28;64.00;96705.91;5065685;28;20008;-75
2023/09/28 11:50:07;;;;;;;;;;;;;;;25.37;68.38;96720.19;5065659;28;20260;-75
2023/09/28 11:52:34;;;;;;;;;;;;;;;25.43;64.37;96707.41;5065260;28;19937;-75
2023/09/28 11:55:01;;;;;;;;;;;;;;;25.50;62.00;96703.19;5099907;28;19936;-75
2023/09/28 11:57:27;;;;;;;;;;;;;;;25.57;62.00;96708.13;5107320;28;19931;-71
2023/09/28 11:59:53;;;;;;;;;;;;;;;25.58;56.57;96703.56;5106732;28;19934;-69
2023/09/28 12:02:19;;;;;;;;;;;;;;;25.56;58.16;96701.19;5106714;28;20032;-68
2023/09/28 12:04:45;;;;;;;;;;;;;;;25.57;63.14;96712.72;5105378;28;19958;-69
2023/09/28 12:07:14;;;;;;;;;;;;;;;25.62;61.17;96693.75;5105491;28;19936;-69
2023/09/28 12:09:40;;;;;;;;;;;;;;;25.67;59.22;96694.44;5106523;28;20242;-70
2023/09/28 12:12:05;;;;;;;;;;;;;;;25.72;59.20;96693.50;5106620;28;19968;-69
2023/09/28 12:14:31;;;;;;;;;;;;;;;25.77;61.66;96703.34;5106544;28;19930;-79
2023/09/28 12:16:57;;;;;;;;;;;;;;;25.84;62.17;96693.72;5105252;28;19962;-71
2023/09/28 12:19:23;;;;;;;;;;;;;;;25.90;57.54;96694.41;5106437;28;19941;-71
2023/09/28 12:21:50;;;;;;;;;;;;;;;25.90;54.70;96692.50;5106330;28;19936;-71
2023/09/28 12:24:16;;;;;;;;;;;;;;;25.90;56.14;96689.81;5105786;28;19952;-69
2023/09/28 12:26:42;;;;;;;;;;;;;;;25.90;53.84;96689.81;5106191;28;19933;-69
2023/09/28 12:29:08;;;;;;;;;;;;;;;25.94;60.66;96695.38;5106218;28;19936;-69
2023/09/28 12:31:35;;;;;;;;;;;;;;;25.99;56.52;96687.16;5106183;28;19935;-70
2023/09/28 12:34:01;;;;;;;;;;;;;;;26.07;59.73;96682.91;5106343;28;20180;-73
2023/09/28 12:36:27;;;;;;;;;;;;;;;26.11;57.21;96683.88;5106014;28;20036;-68
2023/09/28 12:38:53;;;;;;;;;;;;;;;26.18;58.93;96688.78;5105924;28;20119;-68